createdAt,value
2022-08-30T06:43:49.289Z,7.05
2022-08-30T06:44:51.472Z,6.80
2022-08-30T06:45:53.047Z,7.07
2022-08-30T06:46:54.526Z,6.60
2022-08-30T06:47:59.516Z,6.85
2022-08-30T06:49:01.390Z,7.68
2022-08-30T06:50:03.425Z,6.97
2022-08-30T06:51:05.676Z,7.45
2022-08-30T06:52:07.124Z,6.57
2022-08-30T06:53:09.385Z,6.50
2022-08-30T06:54:12.411Z,6.93
2022-08-30T06:55:15.676Z,5.53
2022-08-30T06:56:18.942Z,6.05
2022-08-30T06:57:20.985Z,7.88
2022-08-30T07:18:05.518Z,6.14
2022-08-30T07:19:06.997Z,6.13
2022-08-30T07:20:09.105Z,5.63
2022-08-30T07:21:15.079Z,5.78
2022-08-30T07:22:17.078Z,5.95
2022-08-30T07:23:18.624Z,5.10
2022-08-30T07:30:06.110Z,5.35
2022-08-30T07:32:18.728Z,5.57
2022-08-30T07:33:20.225Z,5.90
2022-08-30T07:34:23.380Z,6.38
2022-08-30T07:35:27.233Z,5.40
2022-08-30T07:56:13.672Z,5.35
2022-08-30T07:57:15.968Z,5.50
2022-08-30T07:58:18.023Z,6.28
2022-08-30T07:59:20.185Z,5.50
2022-08-30T08:00:21.730Z,5.68
2022-08-30T08:01:23.942Z,5.68
2022-08-30T08:02:25.490Z,6.30
2022-08-30T08:03:26.908Z,5.13
2022-08-30T08:04:28.486Z,6.60
2022-08-30T08:05:29.878Z,4.80
2022-08-30T08:24:46.758Z,5.82
2022-08-30T08:25:48.172Z,4.90
2022-08-30T08:26:49.651Z,4.70
2022-08-30T08:27:51.805Z,4.60
2022-08-30T08:28:53.301Z,4.68
2022-08-30T08:29:58.252Z,5.53
2022-08-30T08:36:09.443Z,4.63
2022-08-30T08:37:11.137Z,4.90
2022-08-30T08:38:13.019Z,4.53
2022-08-30T08:39:14.563Z,5.20
2022-08-30T08:40:19.407Z,4.60
2022-08-30T08:41:49.803Z,4.88
2022-08-30T08:43:15.030Z,4.18
2022-08-30T08:44:54.796Z,4.18
2022-08-30T08:46:00.127Z,4.10
2022-08-30T08:47:16.965Z,4.78
2022-08-30T08:48:58.634Z,4.20
2022-08-30T09:06:45.671Z,4.80
2022-08-30T09:07:52.517Z,4.57
2022-08-30T09:08:56.055Z,6.63
2022-08-30T09:10:00.557Z,6.15
2022-08-30T09:11:06.865Z,5.50
2022-08-30T09:18:55.004Z,4.25
2022-08-30T09:19:56.394Z,4.68
2022-08-30T09:21:06.224Z,6.10
2022-08-30T09:22:28.045Z,4.65
2022-08-30T09:23:32.194Z,4.90
2022-08-30T09:30:04.401Z,5.43
2022-08-30T09:31:24.471Z,4.30
2022-08-30T09:32:29.386Z,4.70
2022-08-30T09:33:31.875Z,5.10
2022-08-30T09:34:33.341Z,5.40
2022-08-30T09:35:42.759Z,6.15
2022-08-30T09:36:44.166Z,5.88
2022-08-30T09:38:04.218Z,5.75
2022-08-30T09:39:20.983Z,5.03
2022-08-30T09:40:28.710Z,5.45
2022-08-30T09:41:38.352Z,4.38
2022-08-30T09:42:40.192Z,5.15
2022-08-30T09:43:41.918Z,4.47
2022-08-30T09:44:43.364Z,3.95
2022-08-30T09:45:49.701Z,4.65
2022-08-30T09:46:59.591Z,5.70
2022-08-30T09:48:01.027Z,4.70
2022-08-30T10:00:28.895Z,4.38
2022-08-30T10:01:35.997Z,4.20
2022-08-30T10:02:51.429Z,3.70
2022-08-30T10:04:02.033Z,4.20
2022-08-30T10:05:09.487Z,4.17
2022-08-30T10:06:28.918Z,4.73
2022-08-30T10:07:39.371Z,4.30
2022-08-30T10:08:52.968Z,4.43
2022-08-30T10:10:16.841Z,4.00
2022-08-30T10:11:43.833Z,5.10
2022-08-30T10:13:02.726Z,5.03
2022-08-30T10:14:35.776Z,4.50
2022-08-30T10:16:12.603Z,3.97
2022-08-30T10:17:44.576Z,3.70
2022-08-30T10:18:59.226Z,4.33
2022-08-30T10:20:05.378Z,4.70
2022-08-30T10:21:44.947Z,5.10
2022-08-30T10:23:09.846Z,6.17
2022-08-30T10:24:20.955Z,5.13
2022-08-30T10:25:27.133Z,5.13
2022-08-30T10:26:37.257Z,4.00
2022-08-30T10:27:54.661Z,4.80
2022-08-30T10:29:02.455Z,4.70
2022-08-30T10:37:23.393Z,4.33
2022-08-30T10:38:35.281Z,4.10
2022-08-30T10:39:50.199Z,3.30
2022-08-30T10:41:13.476Z,4.20
2022-08-30T10:42:21.460Z,4.17
2022-08-30T10:43:31.765Z,4.40
2022-08-30T10:44:44.477Z,3.53
2022-08-30T10:45:48.246Z,3.60
2022-08-30T10:47:05.029Z,4.50
2022-08-30T10:48:17.365Z,4.10
2022-08-30T10:49:26.422Z,3.90
2022-08-30T10:50:41.289Z,4.10
2022-08-30T10:51:55.180Z,3.83
2022-08-30T10:53:16.337Z,3.60
2022-08-30T10:54:31.892Z,3.20
2022-08-30T10:55:49.383Z,4.10
2022-08-30T10:56:52.772Z,3.40
2022-08-30T10:57:59.972Z,3.73
2022-08-30T10:59:05.261Z,3.83
2022-08-30T11:00:11.095Z,3.00
2022-08-30T11:01:28.543Z,3.50
2022-08-30T11:02:49.070Z,4.13
2022-08-30T11:04:16.522Z,3.90
2022-08-30T11:05:42.212Z,4.30
2022-08-30T11:12:04.900Z,4.20
2022-08-30T11:13:19.410Z,4.50
2022-08-30T11:14:25.313Z,4.50
2022-08-30T11:15:31.672Z,4.53
2022-08-30T11:16:43.297Z,4.60
2022-08-30T11:17:58.637Z,3.63
2022-08-30T11:24:11.308Z,3.80
2022-08-30T11:25:16.146Z,3.63
2022-08-30T11:26:50.911Z,3.87
2022-08-30T11:27:58.789Z,3.50
2022-08-30T11:29:02.509Z,4.80
2022-08-30T11:30:28.844Z,3.97
2022-08-30T11:31:36.048Z,3.70
2022-08-30T11:33:02.270Z,4.70
2022-08-30T11:34:05.891Z,4.70
2022-08-30T11:35:07.731Z,4.67
2022-08-30T11:37:56.893Z,4.47
2022-08-30T11:39:10.921Z,4.60
2022-08-30T11:40:24.577Z,3.87
2022-08-30T11:41:42.635Z,3.83
2022-08-30T11:42:50.614Z,3.97
2022-08-30T11:43:55.572Z,4.00
2022-08-30T11:45:25.145Z,3.77
2022-08-30T11:46:28.080Z,3.70
2022-08-30T11:47:55.421Z,3.60
2022-08-30T11:49:19.764Z,4.30
2022-08-30T11:50:48.478Z,3.93
2022-08-30T11:52:26.500Z,4.73
2022-08-30T11:53:42.175Z,3.70
2022-08-30T11:55:08.110Z,3.73
2022-08-30T11:56:25.049Z,4.60
2022-08-30T11:58:04.566Z,4.23
2022-08-30T11:59:38.109Z,3.97
2022-08-30T12:00:47.820Z,3.87
2022-08-30T12:01:54.026Z,3.77
2022-08-30T12:03:02.049Z,3.87
2022-08-30T12:04:25.494Z,3.80
2022-08-30T12:05:38.069Z,3.60
2022-08-30T12:06:39.386Z,3.97
2022-08-30T12:08:02.608Z,3.87
2022-08-30T12:09:04.206Z,3.80
2022-08-30T12:10:24.434Z,3.80
2022-08-30T12:11:32.073Z,3.70
2022-08-30T12:12:36.738Z,3.90
2022-08-30T12:13:47.326Z,5.00
2022-08-30T12:14:52.602Z,3.93
2022-08-30T12:15:58.370Z,4.57
2022-08-30T12:17:20.860Z,3.80
2022-08-30T12:18:34.009Z,3.70
2022-08-30T12:19:41.395Z,3.80
2022-08-30T12:20:47.280Z,4.10
2022-08-30T12:21:57.177Z,4.30
2022-08-30T12:23:28.220Z,4.50
2022-08-30T12:24:36.529Z,3.97
2022-08-30T12:25:41.616Z,3.90
2022-08-30T12:26:45.512Z,3.97
2022-08-30T12:27:47.072Z,3.80
2022-08-30T12:28:51.223Z,3.90
2022-08-30T12:29:55.729Z,4.10
2022-08-30T12:31:27.171Z,3.87
2022-08-30T12:32:30.976Z,4.40
2022-08-30T12:33:41.536Z,3.73
2022-08-30T12:34:45.809Z,3.57
2022-08-30T12:35:47.353Z,3.40
2022-08-30T12:36:53.785Z,3.10
2022-08-30T12:37:59.241Z,3.83
2022-08-30T12:39:20.645Z,3.83
2022-08-30T12:40:24.126Z,3.70
2022-08-30T12:41:29.520Z,4.20
2022-08-30T12:42:35.440Z,3.70
2022-08-30T12:43:47.185Z,3.17
2022-08-30T12:44:53.357Z,4.07
2022-08-30T12:45:59.362Z,19.47
2022-08-30T12:47:12.622Z,34.63
2022-08-30T12:48:19.644Z,51.27
2022-08-30T12:49:25.380Z,18.60
2022-08-30T12:50:35.509Z,5.53
2022-08-30T12:51:41.649Z,3.17
2022-08-30T12:52:47.917Z,3.50
2022-08-30T12:53:51.307Z,3.70
2022-08-30T12:54:55.615Z,3.50
2022-08-30T12:56:03.186Z,3.50
2022-08-30T12:57:32.198Z,2.90
2022-08-30T12:58:37.437Z,3.50
2022-08-30T13:05:09.728Z,3.50
2022-08-30T13:06:11.152Z,3.33
2022-08-30T13:07:13.209Z,4.13
2022-08-30T13:08:22.509Z,3.67
2022-08-30T13:09:33.864Z,3.70
2022-08-30T13:10:35.934Z,3.60
2022-08-30T13:11:37.537Z,4.10
2022-08-30T13:12:40.226Z,3.73
2022-08-30T13:13:52.259Z,3.50
2022-08-30T13:15:10.729Z,4.00
2022-08-30T13:16:18.392Z,4.00
2022-08-30T13:17:19.791Z,3.63
2022-08-30T13:18:30.011Z,3.33
2022-08-30T13:19:37.333Z,3.13
2022-08-30T13:20:38.814Z,3.40
2022-08-30T13:21:51.238Z,3.77
2022-08-30T13:23:04.942Z,3.73
2022-08-30T13:24:06.475Z,2.87
2022-08-30T13:25:10.178Z,3.30
2022-08-30T13:26:11.722Z,3.40
2022-08-30T13:27:13.966Z,3.67
2022-08-30T13:28:21.870Z,3.77
2022-08-30T13:29:26.769Z,3.90
2022-08-30T13:30:29.724Z,2.93
2022-08-30T13:31:37.857Z,3.97
2022-08-30T13:32:39.931Z,3.63
2022-08-30T13:33:41.461Z,3.73
2022-08-30T13:34:43.454Z,3.50
2022-08-30T13:35:45.095Z,3.17
2022-08-30T13:36:50.416Z,3.50
2022-08-30T13:37:52.203Z,3.90
2022-08-30T13:38:53.995Z,3.27
2022-08-30T13:39:55.840Z,3.40
2022-08-30T13:40:57.257Z,3.53
2022-08-30T13:48:27.088Z,3.43
2022-08-30T13:49:47.349Z,2.87
2022-08-30T13:50:48.777Z,3.33
2022-08-30T13:52:09.721Z,3.80
2022-08-30T13:53:15.329Z,3.20
2022-08-30T13:54:16.935Z,3.77
2022-08-30T13:55:18.342Z,3.30
2022-08-30T13:56:20.438Z,3.67
2022-08-30T13:58:50.152Z,3.00
2022-08-30T13:59:51.570Z,4.13
2022-08-30T14:00:54.019Z,3.70
2022-08-30T14:02:10.751Z,3.40
2022-08-30T14:03:14.239Z,3.50
2022-08-30T14:04:16.426Z,3.70
2022-08-30T14:05:47.829Z,3.57
2022-08-30T14:07:11.810Z,2.90
2022-08-30T14:08:01.812Z,3.10
2022-08-30T14:09:06.472Z,3.60
2022-08-30T14:17:03.908Z,4.37
2022-08-30T14:18:06.301Z,3.60
2022-08-30T14:19:11.707Z,3.13
2022-08-30T14:20:16.761Z,3.23
2022-08-30T14:21:21.262Z,3.10
2022-08-30T14:22:26.049Z,3.63
2022-08-30T14:23:28.343Z,3.90
2022-08-30T14:24:29.756Z,3.30
2022-08-30T14:25:31.327Z,3.53
2022-08-30T14:26:36.513Z,3.30
2022-08-30T14:27:37.969Z,3.10
2022-08-30T14:28:39.433Z,3.23
2022-08-30T14:29:40.889Z,3.33
2022-08-30T14:30:45.308Z,3.50
2022-08-30T14:31:52.466Z,3.30
2022-08-30T14:32:53.969Z,3.27
2022-08-30T14:33:55.593Z,3.13
2022-08-30T14:34:56.977Z,3.03
2022-08-30T14:35:58.455Z,2.83
2022-08-30T14:36:59.966Z,3.60
2022-08-30T14:38:01.396Z,3.67
2022-08-30T14:39:08.486Z,2.90
2022-08-30T14:40:10.642Z,3.63
2022-08-30T14:41:12.138Z,3.23
2022-08-30T14:42:18.760Z,3.27
2022-08-30T14:43:20.648Z,3.43
2022-08-30T14:44:23.227Z,3.60
2022-08-30T14:45:25.117Z,3.90
2022-08-30T14:46:26.838Z,3.60
2022-08-30T14:53:05.303Z,3.30
2022-08-30T14:54:07.018Z,3.33
2022-08-30T14:55:11.996Z,3.20
2022-08-30T14:56:16.111Z,4.60
2022-08-30T14:57:17.538Z,3.70
2022-08-30T14:58:19.383Z,3.30
2022-08-30T14:59:21.850Z,4.13
2022-08-30T15:00:23.440Z,3.20
2022-08-30T15:01:28.431Z,3.87
2022-08-30T15:02:29.798Z,3.00
2022-08-30T15:03:31.308Z,3.80
2022-08-30T15:04:32.827Z,3.40
2022-08-30T15:11:05.116Z,5.30
2022-08-30T15:12:07.090Z,3.10
2022-08-30T15:13:09.137Z,3.00
2022-08-30T15:14:16.272Z,2.97
2022-08-30T15:15:20.592Z,3.50
2022-08-30T15:16:28.003Z,3.40
2022-08-30T15:17:29.624Z,3.63
2022-08-30T15:18:31.001Z,3.60
2022-08-30T15:19:33.474Z,3.17
2022-08-30T15:20:34.976Z,3.30
2022-08-30T15:21:43.028Z,2.63
2022-08-30T15:22:46.115Z,3.30
2022-08-30T15:23:49.029Z,3.03
2022-08-30T15:24:50.983Z,3.30
2022-08-30T15:25:52.572Z,3.80
2022-08-30T15:26:54.210Z,3.20
2022-08-30T15:27:56.293Z,3.40
2022-08-30T15:28:57.938Z,3.30
2022-08-30T15:35:04.845Z,3.10
2022-08-30T15:36:09.832Z,3.40
2022-08-30T15:37:11.229Z,3.60
2022-08-30T15:38:15.203Z,3.50
2022-08-30T15:39:17.680Z,3.70
2022-08-30T15:40:19.682Z,3.17
2022-08-30T15:41:21.801Z,3.57
2022-08-30T15:42:23.659Z,3.80
2022-08-30T15:43:25.073Z,3.07
2022-08-30T15:44:26.691Z,3.43
2022-08-30T15:45:28.949Z,3.67
2022-08-30T15:46:39.220Z,4.17
2022-08-30T15:47:40.618Z,3.70
2022-08-30T15:48:45.751Z,3.80
2022-08-30T15:49:58.094Z,3.30
2022-08-30T15:50:59.528Z,3.50
2022-08-30T15:52:03.775Z,3.67
2022-08-30T15:53:07.450Z,3.90
2022-08-30T15:54:11.478Z,3.77
2022-08-30T15:55:17.759Z,3.60
2022-08-30T15:56:19.470Z,3.83
2022-08-30T15:57:20.998Z,3.97
2022-08-30T15:58:22.412Z,3.53
2022-08-30T15:59:23.780Z,3.53
2022-08-30T16:00:29.622Z,3.57
2022-08-30T16:01:32.303Z,4.30
2022-08-30T16:02:33.797Z,4.37
2022-08-30T16:03:37.228Z,4.00
2022-08-30T16:04:39.413Z,3.90
2022-08-30T16:11:06.317Z,5.50
2022-08-30T16:12:09.878Z,4.17
2022-08-30T16:13:11.508Z,4.00
2022-08-30T16:14:12.916Z,3.50
2022-08-30T16:15:15.518Z,3.23
2022-08-30T16:16:18.278Z,3.80
2022-08-30T16:17:20.602Z,3.80
2022-08-30T16:18:21.977Z,4.23
2022-08-30T16:19:24.630Z,3.90
2022-08-30T16:20:26.081Z,5.27
2022-08-30T16:21:30.065Z,19.10
2022-08-30T16:22:34.620Z,19.03
2022-08-30T16:23:37.549Z,5.27
2022-08-30T16:24:40.540Z,12.50
2022-08-30T16:25:42.973Z,5.30
2022-08-30T16:26:44.748Z,4.43
2022-08-30T16:27:46.291Z,3.73
2022-08-30T16:28:48.818Z,4.20
2022-08-30T16:35:02.670Z,3.80
2022-08-30T16:36:04.780Z,4.18
2022-08-30T16:37:07.268Z,4.53
2022-08-30T16:38:09.589Z,3.88
2022-08-30T16:39:12.938Z,4.10
2022-08-30T16:40:14.388Z,3.67
2022-08-30T16:41:21.559Z,4.30
2022-08-30T16:42:23.076Z,4.00
2022-08-30T16:43:25.940Z,38.05
